createdAt,value
2022-12-29T00:00:50.420Z,9.10
2022-12-29T00:03:19.985Z,9.10
2022-12-29T00:05:52.507Z,9.00
2022-12-29T00:08:21.181Z,9.20
2022-12-29T00:10:50.526Z,9.10
2022-12-29T00:13:38.401Z,9.30
2022-12-29T00:16:09.778Z,9.10
2022-12-29T00:18:39.203Z,9.10
2022-12-29T00:21:17.724Z,9.20
2022-12-29T00:24:05.321Z,9.30
2022-12-29T00:26:52.985Z,9.30
2022-12-29T00:29:40.440Z,9.30
2022-12-29T00:32:30.638Z,9.20
2022-12-29T00:35:12.635Z,9.40
2022-12-29T00:38:02.661Z,9.30
2022-12-29T00:40:50.291Z,9.50
2022-12-29T00:46:26.918Z,9.50
2022-12-29T00:49:18.077Z,9.30
2022-12-29T00:51:48.274Z,9.50
2022-12-29T00:54:18.635Z,9.50
2022-12-29T00:56:50.928Z,9.30
2022-12-29T00:59:21.349Z,9.30
2022-12-29T01:01:51.315Z,9.30
2022-12-29T01:04:24.602Z,9.40
2022-12-29T01:06:55.338Z,9.40
2022-12-29T01:09:43.230Z,9.30
2022-12-29T01:12:14.222Z,9.30
2022-12-29T01:14:45.077Z,9.30
2022-12-29T01:17:14.689Z,9.30
2022-12-29T01:19:44.261Z,9.40
2022-12-29T01:22:13.700Z,9.30
2022-12-29T01:24:43.843Z,9.40
2022-12-29T01:27:15.001Z,9.40
2022-12-29T01:29:46.119Z,9.40
2022-12-29T01:32:16.237Z,9.50
2022-12-29T01:34:47.285Z,9.40
2022-12-29T01:37:17.239Z,9.30
2022-12-29T01:39:48.047Z,9.30
2022-12-29T01:42:20.487Z,9.30
2022-12-29T01:45:02.203Z,9.40
2022-12-29T01:47:46.788Z,9.40
2022-12-29T01:50:37.481Z,9.40
2022-12-29T01:53:12.737Z,9.40
2022-12-29T01:55:46.398Z,9.40
2022-12-29T01:58:19.154Z,9.30
2022-12-29T02:00:48.941Z,9.40
2022-12-29T02:03:22.642Z,9.30
2022-12-29T02:06:09.986Z,9.20
2022-12-29T02:08:42.731Z,9.30
2022-12-29T02:11:13.973Z,9.20
2022-12-29T02:13:44.531Z,9.20
2022-12-29T02:16:35.427Z,9.30
2022-12-29T02:19:27.926Z,9.20
2022-12-29T02:22:33.790Z,9.30
2022-12-29T02:25:28.244Z,9.30
2022-12-29T02:28:24.579Z,9.30
2022-12-29T02:31:04.064Z,9.30
2022-12-29T02:33:42.561Z,9.20
2022-12-29T02:36:37.926Z,9.20
2022-12-29T02:39:10.417Z,9.30
2022-12-29T02:42:01.115Z,9.30
2022-12-29T02:44:54.483Z,9.30
2022-12-29T02:47:49.547Z,9.30
2022-12-29T02:50:38.825Z,9.20
2022-12-29T02:53:12.178Z,9.20
2022-12-29T02:55:43.218Z,9.20
2022-12-29T02:58:24.706Z,9.20
2022-12-29T03:01:00.516Z,9.10
2022-12-29T03:03:42.184Z,9.20
2022-12-29T03:06:29.383Z,9.10
2022-12-29T03:09:20.377Z,9.10
2022-12-29T03:12:11.391Z,9.20
2022-12-29T03:15:06.858Z,9.00
2022-12-29T03:17:43.104Z,9.10
2022-12-29T03:20:16.045Z,9.00
2022-12-29T03:22:48.551Z,9.10
2022-12-29T03:25:45.262Z,9.00
2022-12-29T03:28:17.990Z,9.20
2022-12-29T03:30:49.302Z,9.10
2022-12-29T03:33:25.930Z,9.10
2022-12-29T03:35:58.676Z,9.10
2022-12-29T03:38:48.721Z,9.10
2022-12-29T03:41:22.792Z,9.10
2022-12-29T03:43:52.311Z,9.00
2022-12-29T03:46:21.968Z,9.00
2022-12-29T03:48:52.471Z,9.20
2022-12-29T03:51:21.890Z,9.10
2022-12-29T03:53:51.379Z,9.20
2022-12-29T03:56:21.421Z,9.10
2022-12-29T03:58:51.400Z,9.20
2022-12-29T04:01:28.397Z,9.20
2022-12-29T04:03:57.866Z,9.10
2022-12-29T04:06:28.350Z,9.10
2022-12-29T04:09:02.829Z,9.10
2022-12-29T04:11:34.633Z,9.10
2022-12-29T04:14:06.839Z,9.20
2022-12-29T04:16:40.580Z,9.10
2022-12-29T04:19:10.857Z,9.10
2022-12-29T04:21:40.408Z,9.10
2022-12-29T04:24:11.453Z,9.20
2022-12-29T04:26:43.222Z,9.00
2022-12-29T04:29:23.841Z,9.10
2022-12-29T04:31:57.740Z,9.20
2022-12-29T04:34:27.275Z,9.20
2022-12-29T04:36:56.687Z,9.10
2022-12-29T04:39:27.590Z,9.20
2022-12-29T04:41:57.159Z,9.20
2022-12-29T04:44:28.415Z,9.00
2022-12-29T04:47:02.011Z,9.20
2022-12-29T04:49:33.257Z,9.20
2022-12-29T04:52:20.808Z,9.00
2022-12-29T04:54:50.510Z,9.10
2022-12-29T04:57:21.645Z,9.30
2022-12-29T04:59:52.905Z,9.10
2022-12-29T05:02:22.515Z,9.20
2022-12-29T05:04:53.319Z,9.30
2022-12-29T05:07:22.907Z,9.30
2022-12-29T05:09:53.130Z,9.30
2022-12-29T05:12:22.617Z,9.40
2022-12-29T05:14:53.932Z,9.20
2022-12-29T05:17:23.363Z,9.10
2022-12-29T05:19:53.062Z,9.20
2022-12-29T05:22:23.416Z,9.10
2022-12-29T05:24:52.996Z,9.10
2022-12-29T05:27:22.557Z,9.30
2022-12-29T05:29:54.016Z,9.10
2022-12-29T05:32:23.593Z,9.30
2022-12-29T05:34:53.120Z,9.30
2022-12-29T05:37:22.828Z,9.30
2022-12-29T05:39:52.660Z,9.20
2022-12-29T05:42:22.579Z,9.30
2022-12-29T05:44:55.720Z,9.40
2022-12-29T05:47:26.943Z,9.10
2022-12-29T05:50:10.702Z,9.10
2022-12-29T05:52:58.316Z,9.30
2022-12-29T05:55:27.940Z,9.30
2022-12-29T05:57:58.722Z,9.10
2022-12-29T06:00:28.311Z,9.10
2022-12-29T06:02:59.612Z,9.20
2022-12-29T06:05:29.236Z,9.30
2022-12-29T06:08:00.424Z,9.20
2022-12-29T06:10:31.000Z,9.10
2022-12-29T06:13:03.062Z,9.10
2022-12-29T06:15:35.413Z,9.20
2022-12-29T06:18:07.013Z,9.40
2022-12-29T06:20:37.444Z,9.40
2022-12-29T06:23:09.433Z,9.10
2022-12-29T06:25:39.327Z,9.10
2022-12-29T06:28:08.833Z,9.30
2022-12-29T06:30:40.048Z,9.10
2022-12-29T06:33:09.560Z,9.10
2022-12-29T06:35:39.652Z,9.10
2022-12-29T06:38:09.176Z,9.10
2022-12-29T06:40:38.667Z,9.30
2022-12-29T06:43:27.216Z,9.20
2022-12-29T06:45:58.464Z,9.20
2022-12-29T06:48:28.969Z,9.20
2022-12-29T06:50:58.913Z,9.20
2022-12-29T06:53:28.409Z,9.20
2022-12-29T06:55:57.945Z,9.30
2022-12-29T06:58:27.383Z,9.30
2022-12-29T07:00:56.950Z,9.00
2022-12-29T07:03:26.587Z,9.30
2022-12-29T07:05:59.231Z,9.30
2022-12-29T07:08:29.264Z,9.20
2022-12-29T07:10:58.684Z,9.30
2022-12-29T07:13:28.124Z,9.10
2022-12-29T07:15:58.743Z,9.20
2022-12-29T07:18:28.184Z,9.00
2022-12-29T07:20:58.720Z,9.20
2022-12-29T07:23:28.225Z,8.90
2022-12-29T07:26:07.044Z,9.10
2022-12-29T07:28:43.640Z,8.90
2022-12-29T07:31:21.806Z,8.80
2022-12-29T07:33:51.441Z,8.70
2022-12-29T07:36:21.453Z,8.70
2022-12-29T07:38:50.889Z,8.90
2022-12-29T07:41:20.316Z,8.80
2022-12-29T07:43:51.438Z,8.70
2022-12-29T07:46:55.652Z,8.80
2022-12-29T07:48:56.227Z,8.70
2022-12-29T07:51:25.744Z,8.80
2022-12-29T07:53:55.168Z,8.70
2022-12-29T07:56:24.458Z,8.90
2022-12-29T07:58:54.612Z,9.10
2022-12-29T08:01:24.739Z,9.10
2022-12-29T08:03:57.490Z,8.90
2022-12-29T08:06:25.522Z,9.20
2022-12-29T08:08:56.595Z,8.90
2022-12-29T08:11:26.488Z,9.20
2022-12-29T08:13:56.192Z,9.20
2022-12-29T08:16:25.638Z,9.30
2022-12-29T08:18:55.149Z,9.10
2022-12-29T08:21:23.942Z,9.30
2022-12-29T08:23:53.498Z,9.30
2022-12-29T08:26:23.489Z,9.40
2022-12-29T08:28:57.530Z,9.30
2022-12-29T08:31:40.251Z,9.20
2022-12-29T08:34:10.391Z,9.50
2022-12-29T08:36:40.161Z,9.50
2022-12-29T08:39:09.741Z,9.40
2022-12-29T08:41:40.742Z,9.50
2022-12-29T08:44:12.584Z,9.80
2022-12-29T08:46:42.214Z,10.00
2022-12-29T08:49:11.728Z,9.80
2022-12-29T08:51:43.018Z,9.80
2022-12-29T08:54:11.662Z,9.70
2022-12-29T08:56:41.575Z,9.90
2022-12-29T08:59:11.305Z,9.90
2022-12-29T09:01:42.734Z,10.00
2022-12-29T09:04:15.648Z,10.00
2022-12-29T09:06:46.652Z,10.20
2022-12-29T09:09:17.043Z,10.30
2022-12-29T09:11:45.744Z,10.50
2022-12-29T09:14:15.250Z,10.80
2022-12-29T09:17:03.497Z,10.80
2022-12-29T09:19:32.387Z,11.10
2022-12-29T09:22:02.181Z,11.20
2022-12-29T09:24:32.807Z,11.10
2022-12-29T09:27:03.263Z,11.00
2022-12-29T09:29:33.481Z,11.10
2022-12-29T09:32:07.550Z,11.20
2022-12-29T09:34:34.826Z,11.20
2022-12-29T09:37:04.273Z,11.40
2022-12-29T09:39:33.691Z,11.20
2022-12-29T09:42:21.354Z,11.20
2022-12-29T09:45:15.432Z,11.10
2022-12-29T09:47:45.828Z,11.20
2022-12-29T09:50:33.068Z,11.40
2022-12-29T09:53:29.610Z,11.30
2022-12-29T09:56:02.803Z,11.30
2022-12-29T09:58:52.426Z,11.20
2022-12-29T10:01:36.882Z,11.20
2022-12-29T10:04:09.409Z,11.20
2022-12-29T10:07:03.545Z,11.30
2022-12-29T10:09:34.417Z,11.30
2022-12-29T10:12:12.617Z,11.30
2022-12-29T10:15:15.090Z,11.60
2022-12-29T10:18:01.669Z,11.70
2022-12-29T10:20:37.060Z,12.00
2022-12-29T10:23:33.889Z,12.10
2022-12-29T10:26:05.559Z,12.20
2022-12-29T10:28:49.980Z,12.40
2022-12-29T10:31:23.299Z,12.60
2022-12-29T10:33:55.838Z,12.70
2022-12-29T10:36:31.411Z,12.80
2022-12-29T10:39:06.577Z,12.70
2022-12-29T10:41:47.800Z,12.70
2022-12-29T10:44:19.472Z,12.80
2022-12-29T10:46:52.157Z,12.80
2022-12-29T10:49:22.691Z,12.70
2022-12-29T10:51:54.947Z,12.60
2022-12-29T10:54:27.447Z,12.60
2022-12-29T10:57:03.249Z,12.60
2022-12-29T10:59:36.586Z,12.60
2022-12-29T11:02:15.205Z,12.70
2022-12-29T11:05:22.888Z,12.70
2022-12-29T11:07:55.416Z,12.70
2022-12-29T11:10:33.954Z,12.80
2022-12-29T11:13:07.554Z,12.80
2022-12-29T11:15:48.390Z,12.80
2022-12-29T11:18:27.823Z,12.80
2022-12-29T11:21:03.913Z,12.90
2022-12-29T11:23:36.568Z,12.90
2022-12-29T11:26:18.239Z,13.00
2022-12-29T11:28:51.287Z,13.20
2022-12-29T11:31:21.656Z,13.40
2022-12-29T11:33:51.104Z,13.40
2022-12-29T11:36:23.850Z,13.60
2022-12-29T11:38:56.552Z,13.60
2022-12-29T11:41:32.139Z,13.60
2022-12-29T11:44:04.924Z,13.50
2022-12-29T11:46:37.481Z,13.60
2022-12-29T11:49:08.215Z,13.60
2022-12-29T11:51:46.989Z,13.60
2022-12-29T11:54:20.403Z,13.60
2022-12-29T11:56:52.777Z,13.60
2022-12-29T11:59:31.375Z,13.70
2022-12-29T12:02:02.982Z,13.70
2022-12-29T12:04:36.301Z,13.80
2022-12-29T12:07:12.411Z,13.80
2022-12-29T12:09:46.434Z,13.90
2022-12-29T12:12:31.381Z,14.00
2022-12-29T12:15:04.286Z,14.10
2022-12-29T12:17:53.255Z,14.20
2022-12-29T12:20:31.595Z,14.20
2022-12-29T12:23:17.225Z,14.10
2022-12-29T12:26:07.688Z,14.20
2022-12-29T12:28:49.447Z,14.10
2022-12-29T12:31:36.972Z,14.10
2022-12-29T12:34:09.783Z,14.10
2022-12-29T12:36:56.675Z,14.10
2022-12-29T12:39:41.518Z,14.10
2022-12-29T12:42:25.792Z,14.20
2022-12-29T12:45:01.576Z,14.40
2022-12-29T12:47:54.971Z,14.60
2022-12-29T12:50:36.659Z,14.70
2022-12-29T12:53:24.215Z,14.70
2022-12-29T12:56:03.383Z,14.40
2022-12-29T12:58:53.729Z,14.40
2022-12-29T13:01:37.746Z,14.30
2022-12-29T13:04:19.445Z,14.30
2022-12-29T13:07:01.560Z,14.20
2022-12-29T13:09:36.868Z,14.10
2022-12-29T13:12:12.206Z,14.00
2022-12-29T13:14:50.718Z,14.00
2022-12-29T13:17:31.967Z,14.00
2022-12-29T13:20:33.003Z,14.00
2022-12-29T13:23:27.172Z,13.90
2022-12-29T13:26:18.957Z,13.90
2022-12-29T13:28:54.299Z,14.00
2022-12-29T13:31:32.336Z,14.00
2022-12-29T13:34:07.811Z,14.00
2022-12-29T13:36:45.949Z,14.00
2022-12-29T13:39:31.022Z,14.00
2022-12-29T13:42:03.776Z,14.00
2022-12-29T13:44:55.104Z,14.10
2022-12-29T13:47:42.599Z,14.20
2022-12-29T13:50:18.146Z,14.20
2022-12-29T13:52:53.254Z,14.10
2022-12-29T13:55:41.071Z,14.00
2022-12-29T13:58:28.847Z,14.00
2022-12-29T14:01:04.277Z,14.00
2022-12-29T14:03:56.250Z,14.00
2022-12-29T14:06:28.759Z,14.00
2022-12-29T14:09:06.780Z,14.10
2022-12-29T14:11:38.860Z,14.10
2022-12-29T14:14:26.391Z,14.20
2022-12-29T14:16:56.553Z,14.10
2022-12-29T14:19:34.836Z,14.30
2022-12-29T14:22:08.000Z,14.40
2022-12-29T14:24:43.287Z,14.40
2022-12-29T14:27:16.299Z,14.40
2022-12-29T14:29:47.989Z,14.30
2022-12-29T14:32:30.334Z,14.20
2022-12-29T14:35:05.221Z,14.30
2022-12-29T14:37:39.033Z,14.30
2022-12-29T14:40:27.496Z,14.10
2022-12-29T14:42:59.360Z,14.10
2022-12-29T14:45:31.812Z,14.10
2022-12-29T14:48:02.259Z,14.00
2022-12-29T14:50:45.908Z,13.90
2022-12-29T14:53:35.542Z,13.90
2022-12-29T14:56:05.497Z,13.80
2022-12-29T14:58:46.824Z,13.80
2022-12-29T15:01:34.246Z,13.80
2022-12-29T15:04:18.666Z,13.70
2022-12-29T15:06:50.237Z,13.70
2022-12-29T15:09:28.461Z,13.70
2022-12-29T15:12:17.400Z,13.80
2022-12-29T15:14:59.333Z,13.70
2022-12-29T15:17:37.636Z,13.70
2022-12-29T15:20:25.616Z,13.60
2022-12-29T15:22:58.516Z,13.50
2022-12-29T15:25:28.577Z,13.50
2022-12-29T15:28:09.032Z,13.50
2022-12-29T15:30:40.082Z,13.40
2022-12-29T15:33:24.267Z,13.40
2022-12-29T15:35:56.290Z,13.40
2022-12-29T15:38:33.593Z,13.40
2022-12-29T15:41:14.794Z,13.30
2022-12-29T15:44:08.370Z,13.20
2022-12-29T15:46:37.509Z,13.20
2022-12-29T15:49:11.277Z,13.20
2022-12-29T15:51:42.580Z,13.10
2022-12-29T15:54:21.070Z,13.10
2022-12-29T15:56:51.660Z,13.10
2022-12-29T15:59:33.028Z,13.00
2022-12-29T16:02:08.731Z,13.00
2022-12-29T16:04:48.389Z,13.00
2022-12-29T16:07:09.740Z,13.00
2022-12-29T16:09:45.213Z,12.90
2022-12-29T16:12:24.031Z,12.90
2022-12-29T16:14:56.546Z,13.00
2022-12-29T16:17:29.367Z,12.90
2022-12-29T16:19:59.452Z,12.80
2022-12-29T16:22:37.790Z,12.90
2022-12-29T16:25:10.298Z,12.80
2022-12-29T16:27:42.908Z,12.80
2022-12-29T16:30:29.533Z,12.80
2022-12-29T16:32:59.272Z,12.80
2022-12-29T16:35:31.697Z,12.80
2022-12-29T16:38:25.306Z,12.70
2022-12-29T16:40:59.988Z,12.50
2022-12-29T16:43:33.406Z,12.50
2022-12-29T16:46:06.063Z,12.40
2022-12-29T16:48:53.985Z,12.20
2022-12-29T16:51:38.263Z,12.20
2022-12-29T16:54:08.593Z,12.20
2022-12-29T16:56:39.860Z,12.20
2022-12-29T16:59:24.279Z,12.40
2022-12-29T17:01:53.891Z,12.20
2022-12-29T17:04:24.299Z,12.20
2022-12-29T17:06:54.183Z,12.40
2022-12-29T17:09:26.709Z,12.30
2022-12-29T17:12:10.806Z,12.30
2022-12-29T17:14:50.417Z,12.40
2022-12-29T17:17:32.945Z,12.10
2022-12-29T17:20:03.945Z,11.90
2022-12-29T17:22:34.220Z,11.90
2022-12-29T17:25:04.472Z,11.70
2022-12-29T17:27:39.776Z,11.80
2022-12-29T17:30:29.750Z,11.80
2022-12-29T17:33:03.546Z,11.70
2022-12-29T17:35:32.966Z,11.60
2022-12-29T17:38:02.543Z,11.60
2022-12-29T17:40:34.635Z,11.60
2022-12-29T17:43:06.087Z,11.60
2022-12-29T17:45:35.845Z,11.60
2022-12-29T17:48:08.392Z,11.50
2022-12-29T17:50:38.084Z,11.50
2022-12-29T17:53:10.593Z,11.50
2022-12-29T17:55:40.366Z,11.40
2022-12-29T17:58:21.777Z,11.40
2022-12-29T18:00:56.154Z,11.40
2022-12-29T18:03:36.014Z,11.50
2022-12-29T18:06:08.628Z,11.40
2022-12-29T18:08:40.574Z,11.40
2022-12-29T18:11:25.775Z,11.30
2022-12-29T18:13:56.209Z,11.40
2022-12-29T18:16:25.776Z,11.20
2022-12-29T18:18:55.338Z,11.20
2022-12-29T18:21:25.823Z,11.10
2022-12-29T18:23:57.029Z,11.10
2022-12-29T18:26:30.951Z,11.20
2022-12-29T18:29:00.778Z,11.20
2022-12-29T18:31:33.312Z,11.30
2022-12-29T18:34:06.002Z,11.20
2022-12-29T18:36:35.425Z,11.20
2022-12-29T18:39:04.925Z,11.00
2022-12-29T18:41:34.559Z,11.10
2022-12-29T18:44:04.078Z,11.00
2022-12-29T18:46:33.531Z,11.10
2022-12-29T18:49:03.470Z,11.10
2022-12-29T18:51:32.956Z,11.10
2022-12-29T18:54:03.340Z,11.10
2022-12-29T18:56:34.501Z,11.20
2022-12-29T18:59:04.000Z,11.10
2022-12-29T19:01:33.520Z,11.30
2022-12-29T19:04:03.172Z,11.10
2022-12-29T19:06:32.817Z,11.20
2022-12-29T19:09:02.270Z,11.20
2022-12-29T19:11:32.907Z,11.20
2022-12-29T19:14:02.460Z,11.20
2022-12-29T19:16:32.825Z,11.10
2022-12-29T19:19:10.129Z,11.20
2022-12-29T19:21:33.672Z,11.30
2022-12-29T19:24:03.325Z,11.30
2022-12-29T19:26:36.444Z,11.20
2022-12-29T19:29:08.855Z,11.10
2022-12-29T19:31:39.928Z,11.10
2022-12-29T19:34:10.636Z,11.10
2022-12-29T19:36:40.087Z,11.10
2022-12-29T19:39:09.691Z,11.20
2022-12-29T19:41:39.474Z,11.10
2022-12-29T19:44:08.925Z,11.20
2022-12-29T19:46:38.409Z,11.10
2022-12-29T19:49:07.977Z,11.20
2022-12-29T19:51:37.419Z,11.00
2022-12-29T19:54:06.997Z,11.00
2022-12-29T19:56:36.562Z,11.10
2022-12-29T19:59:05.977Z,11.00
2022-12-29T20:01:35.480Z,11.20
2022-12-29T20:04:05.049Z,11.10
2022-12-29T20:06:34.562Z,10.80
2022-12-29T20:09:04.269Z,11.00
2022-12-29T20:11:33.890Z,11.10
2022-12-29T20:14:03.801Z,11.00
2022-12-29T20:16:33.404Z,11.10
2022-12-29T20:19:04.660Z,11.20
2022-12-29T20:21:34.109Z,11.10
2022-12-29T20:24:03.542Z,11.10
2022-12-29T20:26:33.302Z,11.10
2022-12-29T20:29:03.466Z,10.90
2022-12-29T20:31:36.312Z,10.80
2022-12-29T20:34:08.922Z,10.90
2022-12-29T20:36:41.551Z,11.00
2022-12-29T20:39:14.121Z,11.10
2022-12-29T20:41:43.897Z,11.00
2022-12-29T20:44:14.849Z,10.90
2022-12-29T20:46:44.748Z,10.90
2022-12-29T20:49:14.431Z,10.80
2022-12-29T20:54:17.068Z,10.80
2022-12-29T20:56:47.269Z,10.90
2022-12-29T20:59:27.494Z,11.00
2022-12-29T21:01:48.633Z,11.00
2022-12-29T21:04:18.397Z,10.90
2022-12-29T21:06:47.836Z,10.80
2022-12-29T21:09:17.519Z,10.70
2022-12-29T21:11:47.764Z,10.60
2022-12-29T21:14:17.425Z,10.60
2022-12-29T21:16:47.526Z,10.80
2022-12-29T21:19:16.992Z,10.80
2022-12-29T21:21:46.983Z,10.90
2022-12-29T21:24:16.409Z,10.90
2022-12-29T21:26:46.218Z,10.80
2022-12-29T21:29:16.006Z,10.90
2022-12-29T21:31:46.350Z,10.90
2022-12-29T21:34:16.172Z,10.90
2022-12-29T21:36:44.889Z,10.90
2022-12-29T21:39:15.345Z,10.90
2022-12-29T21:41:44.897Z,10.80
2022-12-29T21:44:32.557Z,10.90
2022-12-29T21:47:05.122Z,10.80
2022-12-29T21:49:34.880Z,10.80
2022-12-29T21:52:05.227Z,10.80
2022-12-29T21:54:52.622Z,10.80
2022-12-29T21:57:40.218Z,10.80
2022-12-29T22:00:29.977Z,10.60
2022-12-29T22:03:22.979Z,10.50
2022-12-29T22:06:06.206Z,10.40
2022-12-29T22:08:53.305Z,10.40
2022-12-29T22:11:41.152Z,10.60
2022-12-29T22:14:11.155Z,10.70
2022-12-29T22:16:40.630Z,10.70
2022-12-29T22:19:11.765Z,10.40
2022-12-29T22:21:41.152Z,10.60
2022-12-29T22:24:10.765Z,10.60
2022-12-29T22:26:40.460Z,10.60
2022-12-29T22:29:10.156Z,10.70
2022-12-29T22:31:39.609Z,10.70
2022-12-29T22:34:11.425Z,10.70
2022-12-29T22:36:41.171Z,10.60
2022-12-29T22:39:10.677Z,10.80
2022-12-29T22:41:40.403Z,10.70
2022-12-29T22:44:09.986Z,10.80
2022-12-29T22:46:39.451Z,10.50
2022-12-29T22:49:09.112Z,10.50
2022-12-29T22:51:38.535Z,10.30
2022-12-29T22:54:07.976Z,10.30
2022-12-29T22:56:39.624Z,10.40
2022-12-29T22:59:11.574Z,10.50
2022-12-29T23:01:41.412Z,10.40
2022-12-29T23:04:59.266Z,10.50
2022-12-29T23:06:42.727Z,10.40
2022-12-29T23:09:18.079Z,10.60
2022-12-29T23:11:48.349Z,10.50
2022-12-29T23:14:18.453Z,10.40
2022-12-29T23:16:48.037Z,10.30
2022-12-29T23:19:18.000Z,10.40
2022-12-29T23:21:48.000Z,10.40
2022-12-29T23:24:17.580Z,10.60
2022-12-29T23:26:48.536Z,10.40
2022-12-29T23:29:21.164Z,10.50
2022-12-29T23:31:50.836Z,10.60
2022-12-29T23:34:20.491Z,10.60
2022-12-29T23:36:51.124Z,10.60
2022-12-29T23:39:24.420Z,10.60
2022-12-29T23:41:54.164Z,10.50
2022-12-29T23:44:23.587Z,10.30
2022-12-29T23:46:53.150Z,10.50
2022-12-29T23:49:23.609Z,10.50
2022-12-29T23:51:53.042Z,10.50
2022-12-29T23:54:22.471Z,10.60
2022-12-29T23:56:51.956Z,10.50
2022-12-29T23:59:21.379Z,10.70
